Time;durP1;ratioP1;P1;durP2;ratioP2;P2;SDS_P1;SDS_P2;PMS_P1;PMS_P2;Temp;Humidity;BMP_temperature;BMP_pressure;BME280_temperature;BME280_humidity;BME280_pressure;Samples;Min_cycle;Max_cycle;Signal;HPM_P1;HPM_P2
2021/06/10 00:01:19;;;;;;;;;;;;;;;13.92;100.00;101242.97;5093536;28;19959;-74
2021/06/10 00:03:45;;;;;;;;;;;;;;;13.86;100.00;101250.69;5093584;28;19985;-75
2021/06/10 00:06:11;;;;;;;;;;;;;;;13.83;100.00;101245.50;5093570;28;20291;-74
2021/06/10 00:08:37;;;;;;;;;;;;;;;13.79;100.00;101240.44;5092578;28;19924;-74
2021/06/10 00:11:03;;;;;;;;;;;;;;;13.75;100.00;101244.44;5092213;28;20323;-73
2021/06/10 00:13:28;;;;;;;;;;;;;;;13.73;100.00;101236.38;5093540;28;20308;-74
2021/06/10 00:15:54;;;;;;;;;;;;;;;13.71;100.00;101244.69;5093505;28;19924;-74
2021/06/10 00:18:21;;;;;;;;;;;;;;;13.75;100.00;101244.44;5092168;28;20375;-74
2021/06/10 00:20:47;;;;;;;;;;;;;;;13.78;100.00;101242.31;5093171;28;19924;-74
2021/06/10 00:23:14;;;;;;;;;;;;;;;13.78;100.00;101241.44;5093036;28;19932;-74
2021/06/10 00:25:40;;;;;;;;;;;;;;;13.76;100.00;101241.56;5093656;28;19924;-75
2021/06/10 00:28:06;;;;;;;;;;;;;;;13.73;100.00;101240.00;5093348;28;20428;-74
2021/06/10 00:30:33;;;;;;;;;;;;;;;13.72;100.00;101240.09;5091951;28;19931;-74
2021/06/10 00:32:59;;;;;;;;;;;;;;;13.72;100.00;101231.91;5093022;28;19974;-74
2021/06/10 00:35:26;;;;;;;;;;;;;;;13.72;100.00;101237.38;5093077;28;20027;-74
2021/06/10 00:37:56;;;;;;;;;;;;;;;13.73;100.00;101244.56;5092962;28;19954;-74
2021/06/10 00:40:22;;;;;;;;;;;;;;;13.63;100.00;101232.72;5092351;28;19924;-73
2021/06/10 00:42:48;;;;;;;;;;;;;;;13.56;100.00;101235.97;5092987;28;19947;-74
2021/06/10 00:45:15;;;;;;;;;;;;;;;13.48;100.00;101243.06;5091609;28;19981;-74
2021/06/10 00:47:41;;;;;;;;;;;;;;;13.49;100.00;101237.50;5092860;28;19931;-74
2021/06/10 00:50:07;;;;;;;;;;;;;;;13.44;100.00;101247.94;5092820;28;19928;-74
2021/06/10 00:52:34;;;;;;;;;;;;;;;13.37;100.00;101242.16;5092727;28;19981;-74
2021/06/10 00:55:01;;;;;;;;;;;;;;;13.33;100.00;101242.50;5092609;28;19964;-73
2021/06/10 00:57:26;;;;;;;;;;;;;;;13.27;100.00;101240.28;5092562;28;19924;-74
2021/06/10 00:59:52;;;;;;;;;;;;;;;13.25;100.00;101240.41;5091083;28;19967;-74
2021/06/10 01:02:18;;;;;;;;;;;;;;;13.14;100.00;101244.03;5091262;28;19924;-74
2021/06/10 01:04:44;;;;;;;;;;;;;;;13.16;100.00;101238.47;5092380;28;19932;-74
2021/06/10 01:07:13;;;;;;;;;;;;;;;13.13;100.00;101234.13;5092523;28;19924;-74
2021/06/10 01:09:42;;;;;;;;;;;;;;;13.06;100.00;101233.78;5092568;28;20173;-74
2021/06/10 01:12:12;;;;;;;;;;;;;;;12.99;100.00;101231.72;5092484;28;20399;-74
2021/06/10 01:14:40;;;;;;;;;;;;;;;12.90;100.00;101233.34;5092266;28;19975;-73
2021/06/10 01:17:06;;;;;;;;;;;;;;;12.93;100.00;101229.50;5091878;28;20011;-73
2021/06/10 01:19:37;;;;;;;;;;;;;;;12.89;100.00;101229.75;5091345;28;20054;-74
2021/06/10 01:22:05;;;;;;;;;;;;;;;12.89;100.00;101228.88;5092057;28;19939;-73
2021/06/10 01:24:39;;;;;;;;;;;;;;;12.84;100.00;101233.84;5092261;28;20014;-73
2021/06/10 01:27:17;;;;;;;;;;;;;;;12.83;100.00;101222.09;5090865;28;20042;-74
2021/06/10 01:29:44;;;;;;;;;;;;;;;12.88;100.00;101219.84;5092177;28;19959;-72
2021/06/10 01:32:10;;;;;;;;;;;;;;;12.93;100.00;101218.59;5092159;28;20132;-73
2021/06/10 01:34:37;;;;;;;;;;;;;;;12.88;100.00;101208.94;5091454;28;19938;-73
2021/06/10 01:37:04;;;;;;;;;;;;;;;12.85;100.00;101209.22;5091954;28;19928;-73
2021/06/10 01:39:30;;;;;;;;;;;;;;;12.87;100.00;101200.91;5091062;28;20395;-74
2021/06/10 01:41:57;;;;;;;;;;;;;;;12.86;100.00;101202.75;5092005;28;19924;-74
2021/06/10 01:44:25;;;;;;;;;;;;;;;12.85;100.00;101202.88;5090989;28;20341;-73
2021/06/10 01:46:52;;;;;;;;;;;;;;;12.81;100.00;101202.25;5091690;28;19924;-73
2021/06/10 01:49:19;;;;;;;;;;;;;;;12.74;100.00;101203.78;5090460;28;19977;-74
2021/06/10 01:51:45;;;;;;;;;;;;;;;12.73;100.00;101205.66;5089318;28;20284;-73
2021/06/10 01:54:13;;;;;;;;;;;;;;;12.69;100.00;101206.00;5091145;28;19924;-74
2021/06/10 01:56:40;;;;;;;;;;;;;;;12.66;100.00;101204.41;5091827;28;19924;-74
2021/06/10 01:59:06;;;;;;;;;;;;;;;12.71;100.00;101201.31;5091550;28;19974;-74
2021/06/10 02:01:33;;;;;;;;;;;;;;;12.71;100.00;101188.56;5091832;28;20027;-74
2021/06/10 02:04:00;;;;;;;;;;;;;;;12.65;100.00;101190.91;5090938;28;20391;-74
2021/06/10 02:06:27;;;;;;;;;;;;;;;12.58;100.00;101178.81;5091913;28;19924;-74
2021/06/10 02:08:54;;;;;;;;;;;;;;;12.50;100.00;101193.91;5091490;28;20322;-73
2021/06/10 02:11:20;;;;;;;;;;;;;;;12.52;100.00;101186.50;5091394;28;19928;-74
2021/06/10 02:13:48;;;;;;;;;;;;;;;12.52;100.00;101191.94;5091344;28;20485;-73
2021/06/10 02:16:15;;;;;;;;;;;;;;;12.47;100.00;101182.44;5091335;28;19986;-74
2021/06/10 02:18:44;;;;;;;;;;;;;;;12.33;100.00;101197.16;5091421;28;19924;-74
2021/06/10 02:21:11;;;;;;;;;;;;;;;12.21;100.00;101189.00;5091278;28;19924;-74
2021/06/10 02:23:38;;;;;;;;;;;;;;;12.16;100.00;101193.06;5091179;28;19931;-73
2021/06/10 02:26:04;;;;;;;;;;;;;;;12.07;100.00;101183.81;5091103;28;19928;-74
2021/06/10 02:28:31;;;;;;;;;;;;;;;12.03;100.00;101190.47;5090317;28;20540;-74
2021/06/10 02:30:57;;;;;;;;;;;;;;;12.02;100.00;101192.31;5091511;28;19924;-74
2021/06/10 02:33:23;;;;;;;;;;;;;;;12.03;100.00;101187.75;5090916;28;19939;-74
2021/06/10 02:35:50;;;;;;;;;;;;;;;12.01;100.00;101190.59;5091422;28;19924;-74
2021/06/10 02:38:18;;;;;;;;;;;;;;;12.07;100.00;101181.09;5090143;28;19928;-74
2021/06/10 02:40:45;;;;;;;;;;;;;;;12.07;100.00;101181.09;5089650;28;20398;-73
2021/06/10 02:43:13;;;;;;;;;;;;;;;12.08;100.00;101187.38;5091251;28;19924;-73
2021/06/10 02:45:39;;;;;;;;;;;;;;;12.03;100.00;101206.81;5091100;28;19947;-74
2021/06/10 02:48:06;;;;;;;;;;;;;;;12.04;100.00;101209.41;5091241;28;19986;-74
2021/06/10 02:50:32;;;;;;;;;;;;;;;12.13;100.00;101215.97;5091196;28;19924;-73
2021/06/10 02:52:59;;;;;;;;;;;;;;;12.13;100.00;101213.25;5090691;28;19939;-74
2021/06/10 02:55:27;;;;;;;;;;;;;;;12.16;100.00;101210.28;5070905;28;20019;-74
2021/06/10 02:57:53;;;;;;;;;;;;;;;12.23;100.00;101216.09;5070831;28;19935;-74
2021/06/10 03:00:21;;;;;;;;;;;;;;;12.33;100.00;101208.03;5081276;28;19924;-74
2021/06/10 03:02:48;;;;;;;;;;;;;;;12.41;100.00;101224.59;5091375;28;20329;-74
2021/06/10 03:05:14;;;;;;;;;;;;;;;12.44;100.00;101221.66;5093238;28;20284;-74
2021/06/10 03:07:40;;;;;;;;;;;;;;;12.51;100.00;101222.03;5095008;28;19924;-74
2021/06/10 03:10:09;;;;;;;;;;;;;;;12.54;100.00;101225.34;5094772;28;20345;-73
2021/06/10 03:12:35;;;;;;;;;;;;;;;12.61;100.00;101214.81;5094844;28;19931;-74
2021/06/10 03:15:01;;;;;;;;;;;;;;;12.67;100.00;101221.63;5094445;28;20342;-74
2021/06/10 03:17:28;;;;;;;;;;;;;;;12.71;100.00;101202.19;5094120;28;20272;-74
2021/06/10 03:19:54;;;;;;;;;;;;;;;12.73;100.00;101210.22;5094144;28;19924;-73
2021/06/10 03:22:20;;;;;;;;;;;;;;;12.83;100.00;101215.78;5094473;28;20042;-74
2021/06/10 03:24:46;;;;;;;;;;;;;;;12.89;100.00;101213.41;5094336;28;20022;-74
2021/06/10 03:27:13;;;;;;;;;;;;;;;12.99;100.00;101213.50;5094431;28;19928;-74
2021/06/10 03:29:40;;;;;;;;;;;;;;;13.08;100.00;101222.78;5094096;28;19947;-74
2021/06/10 03:32:06;;;;;;;;;;;;;;;13.20;100.00;101219.00;5094369;28;19928;-74
2021/06/10 03:34:33;;;;;;;;;;;;;;;13.34;100.00;101208.78;5094075;28;20388;-74
2021/06/10 03:37:01;;;;;;;;;;;;;;;13.47;100.00;101208.63;5094150;28;20383;-74
2021/06/10 03:39:27;;;;;;;;;;;;;;;13.56;100.00;101205.09;5093595;28;19928;-74
2021/06/10 03:41:53;;;;;;;;;;;;;;;13.68;100.00;101200.44;5093977;28;19967;-74
2021/06/10 03:44:20;;;;;;;;;;;;;;;13.75;100.00;101198.03;5094026;28;19924;-74
2021/06/10 03:46:46;;;;;;;;;;;;;;;13.85;100.00;101201.72;5093812;28;19924;-74
2021/06/10 03:49:12;;;;;;;;;;;;;;;13.90;100.00;101204.91;5092444;28;19928;-74
2021/06/10 03:51:38;;;;;;;;;;;;;;;13.99;100.00;101203.22;5094036;28;19933;-74
2021/06/10 03:54:05;;;;;;;;;;;;;;;14.07;100.00;101198.81;5093563;28;19928;-74
2021/06/10 03:56:31;;;;;;;;;;;;;;;14.23;100.00;101189.28;5093891;28;19924;-74
2021/06/10 03:58:56;;;;;;;;;;;;;;;14.37;100.00;101188.03;5093524;28;19947;-74
2021/06/10 04:01:24;;;;;;;;;;;;;;;14.53;100.00;101191.06;5092996;28;20291;-73
2021/06/10 04:03:49;;;;;;;;;;;;;;;14.74;100.00;101187.44;5093504;28;19935;-72
2021/06/10 04:06:16;;;;;;;;;;;;;;;14.87;100.00;101187.16;5094004;28;20102;-72
2021/06/10 04:08:42;;;;;;;;;;;;;;;15.01;100.00;101183.16;5093875;28;20375;-72
2021/06/10 04:11:08;;;;;;;;;;;;;;;15.22;100.00;101180.31;5093701;28;20308;-72
2021/06/10 04:13:34;;;;;;;;;;;;;;;15.35;100.00;101186.34;5092789;28;19977;-72
2021/06/10 04:15:59;;;;;;;;;;;;;;;15.40;100.00;101191.34;5092439;28;20401;-73
2021/06/10 04:18:27;;;;;;;;;;;;;;;15.46;100.00;101181.69;5092258;28;20272;-74
2021/06/10 04:20:52;;;;;;;;;;;;;;;15.55;100.00;101178.97;5093248;28;19924;-74
2021/06/10 04:23:18;;;;;;;;;;;;;;;15.69;100.00;101172.16;5092312;28;20406;-74
2021/06/10 04:25:44;;;;;;;;;;;;;;;15.89;100.00;101166.69;5093306;28;20423;-75
2021/06/10 04:28:10;;;;;;;;;;;;;;;16.04;100.00;101173.38;5092930;28;19939;-73
2021/06/10 04:30:36;;;;;;;;;;;;;;;16.21;100.00;101170.91;5092479;28;19947;-74
2021/06/10 04:33:02;;;;;;;;;;;;;;;16.40;100.00;101172.66;5092250;28;20493;-74
2021/06/10 04:35:29;;;;;;;;;;;;;;;16.64;100.00;101174.84;5091240;28;20431;-73
2021/06/10 04:37:55;;;;;;;;;;;;;;;16.89;100.00;101169.63;5091626;28;19924;-74
2021/06/10 04:40:21;;;;;;;;;;;;;;;17.10;100.00;101165.75;5091836;28;19935;-74
2021/06/10 04:42:47;;;;;;;;;;;;;;;17.21;100.00;101163.63;5092849;28;19924;-74
2021/06/10 04:45:13;;;;;;;;;;;;;;;17.31;100.00;101168.19;5092756;28;20330;-73
2021/06/10 04:47:39;;;;;;;;;;;;;;;17.42;100.00;101164.31;5091675;28;19928;-74
2021/06/10 04:50:06;;;;;;;;;;;;;;;17.50;100.00;101165.22;5092222;28;20441;-73
2021/06/10 04:52:33;;;;;;;;;;;;;;;17.68;100.00;101161.59;5092605;28;19928;-74
2021/06/10 04:54:59;;;;;;;;;;;;;;;17.83;100.00;101168.22;5090956;28;20430;-76
2021/06/10 04:57:25;;;;;;;;;;;;;;;18.02;100.00;101164.41;5092185;28;19925;-75
2021/06/10 04:59:51;;;;;;;;;;;;;;;18.17;100.00;101158.31;5091016;28;19924;-75
2021/06/10 05:02:16;;;;;;;;;;;;;;;18.27;100.00;101158.22;5092388;28;19930;-76
2021/06/10 05:04:42;;;;;;;;;;;;;;;18.37;100.00;101161.66;5091603;28;20501;-74
2021/06/10 05:07:11;;;;;;;;;;;;;;;18.50;100.00;101151.06;5092097;28;20421;-75
2021/06/10 05:09:38;;;;;;;;;;;;;;;18.67;100.00;101159.38;5092367;28;19924;-75
2021/06/10 05:12:04;;;;;;;;;;;;;;;18.78;100.00;101161.81;5092387;28;20392;-74
2021/06/10 05:14:30;;;;;;;;;;;;;;;18.87;100.00;101154.44;5092253;28;19924;-75
2021/06/10 05:16:56;;;;;;;;;;;;;;;19.05;100.00;101159.81;5091672;28;19973;-74
2021/06/10 05:19:22;;;;;;;;;;;;;;;19.23;100.00;101157.78;5092487;28;19971;-74
2021/06/10 05:21:47;;;;;;;;;;;;;;;19.33;100.00;101156.75;5091848;28;19932;-73
2021/06/10 05:24:15;;;;;;;;;;;;;;;19.35;100.00;101163.81;5091558;28;19936;-73
2021/06/10 05:26:42;;;;;;;;;;;;;;;19.46;100.00;101167.25;5091738;28;19931;-73
2021/06/10 05:29:08;;;;;;;;;;;;;;;19.57;100.00;101159.50;5091908;28;19954;-74
2021/06/10 05:31:34;;;;;;;;;;;;;;;19.65;100.00;101163.28;5091988;28;20395;-73
2021/06/10 05:34:00;;;;;;;;;;;;;;;19.73;100.00;101155.88;5090094;28;19931;-74
2021/06/10 05:36:26;;;;;;;;;;;;;;;19.80;100.00;101156.03;5091493;28;19970;-74
2021/06/10 05:38:51;;;;;;;;;;;;;;;19.89;100.00;101154.97;5091635;28;20505;-73
2021/06/10 05:41:17;;;;;;;;;;;;;;;20.09;100.00;101164.78;5090628;28;19924;-74
2021/06/10 05:43:44;;;;;;;;;;;;;;;20.32;100.00;101159.34;5090598;28;19932;-75
2021/06/10 05:46:10;;;;;;;;;;;;;;;20.45;100.00;101165.13;5090587;28;19962;-75
2021/06/10 05:48:36;;;;;;;;;;;;;;;20.64;100.00;101169.34;5091134;28;19964;-74
2021/06/10 05:51:02;;;;;;;;;;;;;;;20.94;100.00;101165.94;5091568;28;19924;-73
2021/06/10 05:53:28;;;;;;;;;;;;;;;21.07;100.00;101157.91;5091215;28;19931;-74
2021/06/10 05:55:53;;;;;;;;;;;;;;;21.33;100.00;101153.94;5091064;28;19981;-74
2021/06/10 05:58:19;;;;;;;;;;;;;;;21.53;100.00;101157.91;5090779;28;19924;-74
2021/06/10 06:00:46;;;;;;;;;;;;;;;21.81;100.00;101159.22;5091323;28;19942;-73
2021/06/10 06:03:12;;;;;;;;;;;;;;;22.19;100.00;101157.25;5091341;28;19955;-73
2021/06/10 06:05:38;;;;;;;;;;;;;;;22.61;100.00;101154.84;5091124;28;19990;-73
2021/06/10 06:08:05;;;;;;;;;;;;;;;22.76;100.00;101160.31;5091425;28;19956;-73
2021/06/10 06:10:31;;;;;;;;;;;;;;;22.99;100.00;101164.84;5090920;28;20405;-73
2021/06/10 06:12:59;;;;;;;;;;;;;;;23.45;100.00;101160.84;5091155;28;19924;-75
2021/06/10 06:15:25;;;;;;;;;;;;;;;23.89;100.00;101165.25;5091349;28;19924;-74
2021/06/10 06:17:52;;;;;;;;;;;;;;;24.45;93.20;101167.09;5091409;28;19930;-74
2021/06/10 06:20:20;;;;;;;;;;;;;;;24.56;91.28;101166.50;5090015;28;20395;-74
2021/06/10 06:22:46;;;;;;;;;;;;;;;24.50;88.02;101169.25;5090902;28;20367;-74
2021/06/10 06:25:12;;;;;;;;;;;;;;;24.92;90.02;101172.00;5090996;28;19932;-74
2021/06/10 06:27:39;;;;;;;;;;;;;;;25.33;81.81;101162.69;5090762;28;19924;-74
2021/06/10 06:30:06;;;;;;;;;;;;;;;25.80;78.82;101166.38;5091323;28;19931;-74
2021/06/10 06:32:33;;;;;;;;;;;;;;;25.99;76.22;101169.31;5091394;28;19960;-74
2021/06/10 06:35:00;;;;;;;;;;;;;;;26.31;75.11;101178.69;5090534;28;19924;-74
2021/06/10 06:37:26;;;;;;;;;;;;;;;26.42;71.87;101177.16;5091119;28;19931;-74
2021/06/10 06:39:52;;;;;;;;;;;;;;;26.57;77.07;101174.09;5094516;28;19924;-74
2021/06/10 06:42:17;;;;;;;;;;;;;;;26.56;77.16;101181.63;5094194;28;19928;-74
2021/06/10 06:44:43;;;;;;;;;;;;;;;26.67;83.68;101179.19;5094444;28;19932;-74
2021/06/10 06:47:09;;;;;;;;;;;;;;;26.73;79.47;101176.41;5094856;28;20374;-74
2021/06/10 06:49:35;;;;;;;;;;;;;;;26.79;77.52;101184.97;5094924;28;19939;-74
2021/06/10 06:52:03;;;;;;;;;;;;;;;26.66;77.10;101185.84;5095035;28;19924;-75
2021/06/10 06:54:28;;;;;;;;;;;;;;;26.92;78.81;101184.03;5094806;28;19985;-74
2021/06/10 06:56:54;;;;;;;;;;;;;;;27.18;77.44;101192.25;5095118;28;19924;-73
2021/06/10 06:59:20;;;;;;;;;;;;;;;27.00;64.11;101179.06;5094654;28;20469;-73
2021/06/10 07:01:46;;;;;;;;;;;;;;;26.99;65.66;101190.41;5093696;28;20272;-74
2021/06/10 07:04:12;;;;;;;;;;;;;;;26.95;69.26;101194.72;5094735;28;19924;-74
2021/06/10 07:06:38;;;;;;;;;;;;;;;27.27;59.73;101198.38;5093714;28;19924;-74
2021/06/10 07:09:05;;;;;;;;;;;;;;;27.68;60.19;101190.63;5094646;28;19928;-73
2021/06/10 07:11:31;;;;;;;;;;;;;;;27.98;55.26;101198.28;5094729;28;19924;-74
2021/06/10 07:13:57;;;;;;;;;;;;;;;27.93;54.91;101192.53;5094168;28;19924;-73
2021/06/10 07:16:23;;;;;;;;;;;;;;;28.05;60.71;101194.38;5093312;28;19924;-73
2021/06/10 07:18:48;;;;;;;;;;;;;;;28.48;54.68;101194.56;5093258;28;19935;-74
2021/06/10 07:21:14;;;;;;;;;;;;;;;28.91;53.67;101195.56;5094327;28;19931;-74
2021/06/10 07:23:40;;;;;;;;;;;;;;;28.93;52.50;101205.41;5094403;28;19931;-74
2021/06/10 07:26:07;;;;;;;;;;;;;;;28.83;50.02;101191.16;5094441;28;19924;-73
2021/06/10 07:28:33;;;;;;;;;;;;;;;28.89;50.27;101195.81;5094231;28;20256;-74
2021/06/10 07:30:59;;;;;;;;;;;;;;;28.40;49.68;101206.91;5093052;28;19973;-74
2021/06/10 07:33:25;;;;;;;;;;;;;;;28.10;54.50;101196.50;5093756;28;19924;-73
2021/06/10 07:35:51;;;;;;;;;;;;;;;27.74;51.78;101203.66;5093007;28;19928;-73
2021/06/10 07:38:17;;;;;;;;;;;;;;;27.98;54.57;101204.72;5094307;28;19924;-73
2021/06/10 07:40:43;;;;;;;;;;;;;;;28.29;53.86;101204.84;5093232;28;19928;-74
2021/06/10 07:43:10;;;;;;;;;;;;;;;28.17;53.78;101210.38;5073762;28;19925;-73
2021/06/10 07:45:36;;;;;;;;;;;;;;;28.56;54.33;101214.63;5080414;28;20301;-73
2021/06/10 07:48:02;;;;;;;;;;;;;;;28.72;53.72;101213.19;5094216;28;20315;-74
2021/06/10 07:50:28;;;;;;;;;;;;;;;29.01;51.11;101215.38;5093862;28;19939;-73
2021/06/10 07:52:54;;;;;;;;;;;;;;;29.35;49.13;101213.84;5092676;28;19928;-73
2021/06/10 07:55:21;;;;;;;;;;;;;;;29.70;47.98;101209.44;5093587;28;19924;-73
2021/06/10 07:57:47;;;;;;;;;;;;;;;29.67;47.98;101207.13;5093311;28;20414;-73
2021/06/10 08:00:15;;;;;;;;;;;;;;;29.38;47.08;101207.81;5093775;28;19924;-73
2021/06/10 08:02:44;;;;;;;;;;;;;;;29.27;47.82;101217.00;5093092;28;19928;-73
2021/06/10 08:05:10;;;;;;;;;;;;;;;29.33;49.50;101215.19;5093042;28;19924;-73
2021/06/10 08:07:37;;;;;;;;;;;;;;;29.04;48.88;101214.94;5093357;28;19931;-73
2021/06/10 08:10:03;;;;;;;;;;;;;;;29.01;49.71;101210.66;5092262;28;20209;-76
2021/06/10 08:12:29;;;;;;;;;;;;;;;28.92;52.44;101217.66;5092883;28;19924;-75
2021/06/10 08:14:57;;;;;;;;;;;;;;;29.28;45.18;101215.91;5091550;28;19924;-75
2021/06/10 08:17:24;;;;;;;;;;;;;;;29.58;44.10;101212.22;5092047;28;20019;-75
2021/06/10 08:19:50;;;;;;;;;;;;;;;30.11;40.87;101216.06;5093430;28;19935;-76
2021/06/10 08:22:16;;;;;;;;;;;;;;;30.58;40.60;101211.53;5093085;28;19943;-75
2021/06/10 08:24:42;;;;;;;;;;;;;;;31.12;39.16;101203.72;5093032;28;19924;-75
2021/06/10 08:27:08;;;;;;;;;;;;;;;31.36;39.38;101204.44;5092898;28;20405;-76
2021/06/10 08:29:34;;;;;;;;;;;;;;;31.96;38.37;101198.44;5093196;28;19932;-75
2021/06/10 08:32:00;;;;;;;;;;;;;;;32.00;37.42;101200.50;5092829;28;19928;-75
2021/06/10 08:34:27;;;;;;;;;;;;;;;32.08;39.92;101207.59;5092645;28;19925;-75
2021/06/10 08:36:53;;;;;;;;;;;;;;;31.58;37.88;101202.84;5093097;28;19924;-76
2021/06/10 08:39:19;;;;;;;;;;;;;;;31.37;38.07;101211.75;5092846;28;19931;-75
2021/06/10 08:41:45;;;;;;;;;;;;;;;31.83;37.36;101203.31;5092000;28;20027;-75
2021/06/10 08:44:11;;;;;;;;;;;;;;;31.67;38.32;101209.78;5092352;28;19924;-75
2021/06/10 08:46:37;;;;;;;;;;;;;;;31.08;38.33;101212.88;5090418;28;20013;-76
2021/06/10 08:49:04;;;;;;;;;;;;;;;30.59;37.10;101211.28;5092759;28;20022;-76
2021/06/10 08:51:32;;;;;;;;;;;;;;;29.08;39.31;101218.97;5092353;28;20410;-76
2021/06/10 08:53:58;;;;;;;;;;;;;;;29.83;40.77;101213.97;5092355;28;19928;-75
2021/06/10 08:56:24;;;;;;;;;;;;;;;31.00;40.88;101209.34;5092811;28;19939;-75
2021/06/10 08:58:50;;;;;;;;;;;;;;;31.59;38.60;101210.13;5092298;28;19947;-75
2021/06/10 09:01:16;;;;;;;;;;;;;;;32.02;36.30;101217.06;5091598;28;20310;-74
2021/06/10 09:03:42;;;;;;;;;;;;;;;32.02;35.90;101209.47;5091826;28;20448;-75
2021/06/10 09:06:09;;;;;;;;;;;;;;;31.81;36.07;101213.91;5092060;28;20022;-75
2021/06/10 09:08:37;;;;;;;;;;;;;;;31.81;33.90;101202.69;5081559;28;19978;-75
2021/06/10 09:11:04;;;;;;;;;;;;;;;32.39;33.64;101210.91;5089640;28;20342;-75
2021/06/10 09:13:36;;;;;;;;;;;;;;;32.66;33.97;101212.94;5091878;28;19924;-74
2021/06/10 09:16:15;;;;;;;;;;;;;;;32.47;32.94;101204.84;5091020;28;19932;-74
2021/06/10 09:18:47;;;;;;;;;;;;;;;32.78;34.41;101213.69;5092033;28;20376;-74
2021/06/10 09:21:22;;;;;;;;;;;;;;;32.87;33.82;101214.06;5091154;28;19924;-75
2021/06/10 09:23:50;;;;;;;;;;;;;;;32.64;35.80;101218.81;5091799;28;19931;-74
2021/06/10 09:26:16;;;;;;;;;;;;;;;32.25;33.79;101207.59;5091508;28;20414;-74
2021/06/10 09:28:43;;;;;;;;;;;;;;;32.35;36.25;101219.00;5091766;28;19924;-74
2021/06/10 09:31:09;;;;;;;;;;;;;;;32.78;34.26;101215.63;5089025;28;19935;-74
2021/06/10 09:33:37;;;;;;;;;;;;;;;33.00;32.92;101212.81;5087314;28;20310;-74
2021/06/10 09:36:04;;;;;;;;;;;;;;;33.53;35.45;101210.28;5091013;28;19978;-74
2021/06/10 09:38:29;;;;;;;;;;;;;;;33.13;33.88;101215.19;5092011;28;19928;-75
2021/06/10 09:41:03;;;;;;;;;;;;;;;33.22;33.33;101215.59;5092378;28;19970;-74
2021/06/10 09:43:41;;;;;;;;;;;;;;;33.56;31.14;101208.91;5091502;28;19931;-74
2021/06/10 09:46:07;;;;;;;;;;;;;;;33.85;30.77;101204.66;5091395;28;19927;-74
2021/06/10 09:48:32;;;;;;;;;;;;;;;33.60;30.15;101204.44;5089903;28;20013;-74
2021/06/10 09:50:59;;;;;;;;;;;;;;;32.38;31.16;101192.34;5090874;28;19924;-74
2021/06/10 09:53:27;;;;;;;;;;;;;;;31.13;35.31;101196.97;5089559;28;19928;-74
2021/06/10 09:55:56;;;;;;;;;;;;;;;31.06;35.95;101201.91;5091233;28;19943;-75
2021/06/10 09:58:25;;;;;;;;;;;;;;;31.58;34.30;101198.09;5091220;28;19931;-75
2021/06/10 10:00:52;;;;;;;;;;;;;;;32.26;33.58;101192.47;5090145;28;19931;-75
2021/06/10 10:03:29;;;;;;;;;;;;;;;32.76;34.19;101196.22;5090562;28;19931;-75
2021/06/10 10:05:57;;;;;;;;;;;;;;;32.93;33.13;101201.78;5091279;28;19936;-75
2021/06/10 10:08:23;;;;;;;;;;;;;;;33.26;31.08;101191.47;5089992;28;19924;-75
2021/06/10 10:10:49;;;;;;;;;;;;;;;33.13;30.67;101200.31;5091290;28;20441;-75
2021/06/10 10:13:17;;;;;;;;;;;;;;;32.55;31.42;101195.94;5092181;28;19927;-75
2021/06/10 10:15:44;;;;;;;;;;;;;;;32.60;32.96;101192.34;5094079;28;20369;-65
2021/06/10 10:18:11;;;;;;;;;;;;;;;32.90;30.43;101198.63;5094862;28;19932;-75
2021/06/10 10:20:38;;;;;;;;;;;;;;;31.99;29.62;101195.09;5094790;28;20416;-66
2021/06/10 10:23:03;;;;;;;;;;;;;;;31.48;30.02;101197.91;5094716;28;19978;-66
2021/06/10 10:25:30;;;;;;;;;;;;;;;31.68;30.94;101197.44;5093873;28;19924;-66
2021/06/10 10:27:55;;;;;;;;;;;;;;;31.64;30.63;101201.84;5094908;28;19928;-66
2021/06/10 10:30:23;;;;;;;;;;;;;;;31.07;29.14;101191.53;5095424;28;20460;-66
2021/06/10 10:32:50;;;;;;;;;;;;;;;31.04;29.48;101190.09;5094858;28;19924;-66
2021/06/10 10:35:26;;;;;;;;;;;;;;;29.83;30.85;101184.03;5094552;28;19932;-67
2021/06/10 10:37:53;;;;;;;;;;;;;;;30.11;32.29;101184.44;5094182;28;20407;-66
2021/06/10 10:40:19;;;;;;;;;;;;;;;29.98;33.87;101185.53;5093201;28;19928;-66
2021/06/10 10:42:46;;;;;;;;;;;;;;;29.74;32.49;101185.47;5094647;28;19931;-66
2021/06/10 10:45:14;;;;;;;;;;;;;;;29.70;32.68;101189.84;5092670;28;20049;-66
2021/06/10 10:47:41;;;;;;;;;;;;;;;29.04;31.92;101187.84;5094562;28;19930;-66
2021/06/10 10:50:09;;;;;;;;;;;;;;;30.00;30.36;101186.16;5093625;28;20018;-65
2021/06/10 10:52:37;;;;;;;;;;;;;;;30.51;33.61;101184.50;5095020;28;19928;-65
2021/06/10 10:55:17;;;;;;;;;;;;;;;30.59;30.85;101185.22;5094972;28;20287;-65
2021/06/10 10:57:44;;;;;;;;;;;;;;;31.14;29.32;101181.03;5093950;28;19932;-66
2021/06/10 11:00:14;;;;;;;;;;;;;;;31.05;29.38;101184.25;5094417;28;19939;-65
2021/06/10 11:02:46;;;;;;;;;;;;;;;30.60;27.93;101181.31;5094411;28;19924;-65
2021/06/10 11:05:27;;;;;;;;;;;;;;;30.15;28.82;101178.09;5094049;28;20284;-65
2021/06/10 11:07:53;;;;;;;;;;;;;;;29.59;30.04;101179.53;5094516;28;20440;-66
2021/06/10 11:10:37;;;;;;;;;;;;;;;30.10;28.91;101177.13;5094630;28;19931;-65
2021/06/10 11:13:13;;;;;;;;;;;;;;;30.10;29.36;101175.16;5090603;28;20026;-65
2021/06/10 11:15:49;;;;;;;;;;;;;;;30.34;29.31;101177.94;5094791;28;19924;-65
2021/06/10 11:18:30;;;;;;;;;;;;;;;30.34;29.39;101172.34;5094173;28;19960;-66
2021/06/10 11:20:57;;;;;;;;;;;;;;;30.53;29.70;101173.94;5094531;28;19924;-67
2021/06/10 11:23:26;;;;;;;;;;;;;;;30.40;28.28;101171.38;5093765;28;19959;-68
2021/06/10 11:25:53;;;;;;;;;;;;;;;30.27;28.56;101171.66;5094273;28;20065;-66
2021/06/10 11:28:19;;;;;;;;;;;;;;;30.27;28.90;101157.66;5093873;28;19924;-65
2021/06/10 11:30:45;;;;;;;;;;;;;;;30.31;28.83;101161.66;5093653;28;19928;-65
2021/06/10 11:33:12;;;;;;;;;;;;;;;30.58;27.10;101161.13;5093640;28;19939;-65
2021/06/10 11:35:42;;;;;;;;;;;;;;;30.39;30.21;101166.88;5093768;28;19931;-66
2021/06/10 11:38:14;;;;;;;;;;;;;;;30.40;27.38;101146.19;5093838;28;19924;-65
2021/06/10 11:40:41;;;;;;;;;;;;;;;30.12;27.69;101153.41;5093982;28;19928;-65
2021/06/10 11:43:08;;;;;;;;;;;;;;;30.53;27.87;101154.31;5093840;28;19924;-67
2021/06/10 11:45:34;;;;;;;;;;;;;;;31.37;26.88;101146.41;5094105;28;19924;-66
2021/06/10 11:48:01;;;;;;;;;;;;;;;31.58;25.53;101143.94;5093785;28;19932;-65
2021/06/10 11:50:28;;;;;;;;;;;;;;;31.54;24.75;101140.78;5094074;28;19924;-64
2021/06/10 11:52:55;;;;;;;;;;;;;;;32.25;26.86;101137.41;5093705;28;19977;-64
2021/06/10 11:55:22;;;;;;;;;;;;;;;32.70;26.37;101139.09;5093728;28;19924;-64
2021/06/10 11:57:55;;;;;;;;;;;;;;;31.63;23.94;101132.81;5094018;28;19931;-65
2021/06/10 12:00:25;;;;;;;;;;;;;;;32.39;26.04;101137.88;5093612;28;19924;-64
2021/06/10 12:02:54;;;;;;;;;;;;;;;33.32;24.20;101127.69;5092257;28;20272;-64
2021/06/10 12:05:20;;;;;;;;;;;;;;;33.68;27.05;101130.78;5093444;28;19924;-64
2021/06/10 12:07:46;;;;;;;;;;;;;;;32.61;23.29;101131.41;5092499;28;19974;-65
2021/06/10 12:10:17;;;;;;;;;;;;;;;32.10;24.39;101132.41;5093417;28;19924;-65
2021/06/10 12:12:45;;;;;;;;;;;;;;;32.02;24.31;101130.88;5092985;28;19924;-65
2021/06/10 12:15:27;;;;;;;;;;;;;;;31.28;24.06;101117.06;5093194;28;19931;-65
2021/06/10 12:17:54;;;;;;;;;;;;;;;31.85;24.25;101124.47;5091235;28;19924;-64
2021/06/10 12:20:21;;;;;;;;;;;;;;;32.26;23.54;101124.22;5093596;28;19977;-64
2021/06/10 12:22:47;;;;;;;;;;;;;;;32.77;24.17;101122.06;5093338;28;19924;-64
2021/06/10 12:25:14;;;;;;;;;;;;;;;32.85;23.44;101120.75;5092451;28;19932;-64
2021/06/10 12:27:40;;;;;;;;;;;;;;;33.17;24.13;101119.94;5093349;28;19924;-64
2021/06/10 12:30:21;;;;;;;;;;;;;;;33.88;23.11;101116.84;5074783;28;19970;-64